sensor_id;sensor_type;location;lat;lon;timestamp;pressure;altitude;pressure_sealevel;temperature;humidity
76137;BME280;68622;53.128;17.966;2023-06-22T00:01:18;101450.52;;;20.73;68.14
76137;BME280;68622;53.128;17.966;2023-06-22T00:03:45;101453.77;;;20.72;68.12
76137;BME280;68622;53.128;17.966;2023-06-22T00:06:12;101454.11;;;20.73;68.03
76137;BME280;68622;53.128;17.966;2023-06-22T00:08:40;101456.09;;;20.76;67.91
76137;BME280;68622;53.128;17.966;2023-06-22T00:11:07;101462.90;;;20.78;67.82
76137;BME280;68622;53.128;17.966;2023-06-22T00:13:33;101465.66;;;20.80;67.87
76137;BME280;68622;53.128;17.966;2023-06-22T00:16:00;101464.77;;;20.82;67.90
76137;BME280;68622;53.128;17.966;2023-06-22T00:18:27;101464.65;;;20.82;67.85
76137;BME280;68622;53.128;17.966;2023-06-22T00:20:55;101465.67;;;20.84;67.81
76137;BME280;68622;53.128;17.966;2023-06-22T00:23:24;101469.88;;;20.86;68.00
76137;BME280;68622;53.128;17.966;2023-06-22T00:25:51;101461.36;;;20.88;67.68
76137;BME280;68622;53.128;17.966;2023-06-22T00:28:18;101467.47;;;20.90;67.62
76137;BME280;68622;53.128;17.966;2023-06-22T00:30:45;101473.05;;;20.91;67.79
76137;BME280;68622;53.128;17.966;2023-06-22T00:33:12;101474.45;;;20.91;67.99
76137;BME280;68622;53.128;17.966;2023-06-22T00:35:40;101477.59;;;20.90;67.97
76137;BME280;68622;53.128;17.966;2023-06-22T00:38:08;101482.30;;;20.89;68.02
76137;BME280;68622;53.128;17.966;2023-06-22T00:40:35;101479.16;;;20.88;67.92
76137;BME280;68622;53.128;17.966;2023-06-22T00:43:03;101481.27;;;20.88;67.93
76137;BME280;68622;53.128;17.966;2023-06-22T00:45:30;101484.52;;;20.89;67.87
76137;BME280;68622;53.128;17.966;2023-06-22T00:47:58;101481.92;;;20.90;67.77
76137;BME280;68622;53.128;17.966;2023-06-22T00:50:27;101480.02;;;20.91;67.68
76137;BME280;68622;53.128;17.966;2023-06-22T00:52:57;101479.98;;;20.91;67.63
76137;BME280;68622;53.128;17.966;2023-06-22T00:55:26;101480.88;;;20.91;67.53
76137;BME280;68622;53.128;17.966;2023-06-22T00:57:53;101482.90;;;20.91;67.57
76137;BME280;68622;53.128;17.966;2023-06-22T01:00:25;101480.31;;;20.92;67.38
76137;BME280;68622;53.128;17.966;2023-06-22T01:02:52;101482.14;;;20.91;67.51
76137;BME280;68622;53.128;17.966;2023-06-22T01:05:21;101484.02;;;20.92;67.38
76137;BME280;68622;53.128;17.966;2023-06-22T01:10:29;101484.41;;;20.88;67.35
76137;BME280;68622;53.128;17.966;2023-06-22T01:13:05;101494.11;;;20.81;67.60
76137;BME280;68622;53.128;17.966;2023-06-22T01:15:44;101493.30;;;20.77;67.33
76137;BME280;68622;53.128;17.966;2023-06-22T01:18:13;101496.79;;;20.73;67.06
76137;BME280;68622;53.128;17.966;2023-06-22T01:20:41;101494.25;;;20.66;67.10
76137;BME280;68622;53.128;17.966;2023-06-22T01:23:24;101493.84;;;20.58;67.25
76137;BME280;68622;53.128;17.966;2023-06-22T01:26:05;101492.85;;;20.52;66.96
76137;BME280;68622;53.128;17.966;2023-06-22T01:28:48;101493.54;;;20.46;66.99
76137;BME280;68622;53.128;17.966;2023-06-22T01:31:20;101495.65;;;20.40;67.00
76137;BME280;68622;53.128;17.966;2023-06-22T01:33:53;101493.08;;;20.33;66.84
76137;BME280;68622;53.128;17.966;2023-06-22T01:36:21;101495.92;;;20.25;66.74
76137;BME280;68622;53.128;17.966;2023-06-22T01:38:49;101494.93;;;20.21;66.64
76137;BME280;68622;53.128;17.966;2023-06-22T01:41:17;101491.28;;;20.16;66.65
76137;BME280;68622;53.128;17.966;2023-06-22T01:43:48;101495.51;;;20.11;66.72
76137;BME280;68622;53.128;17.966;2023-06-22T01:46:15;101491.00;;;20.06;66.81
76137;BME280;68622;53.128;17.966;2023-06-22T01:48:42;101494.66;;;20.01;66.67
76137;BME280;68622;53.128;17.966;2023-06-22T01:51:09;101498.90;;;19.97;66.74
76137;BME280;68622;53.128;17.966;2023-06-22T01:53:36;101495.63;;;19.89;66.93
76137;BME280;68622;53.128;17.966;2023-06-22T01:56:02;101497.39;;;19.83;67.26
76137;BME280;68622;53.128;17.966;2023-06-22T01:58:30;101493.44;;;19.76;67.04
76137;BME280;68622;53.128;17.966;2023-06-22T02:01:11;101493.89;;;19.69;66.93
76137;BME280;68622;53.128;17.966;2023-06-22T02:03:43;101496.99;;;19.63;67.44
76137;BME280;68622;53.128;17.966;2023-06-22T02:06:25;101492.52;;;19.58;67.21
76137;BME280;68622;53.128;17.966;2023-06-22T02:08:57;101495.08;;;19.54;67.58
76137;BME280;68622;53.128;17.966;2023-06-22T02:11:26;101488.77;;;19.47;67.55
76137;BME280;68622;53.128;17.966;2023-06-22T02:13:55;101491.12;;;19.42;67.81
76137;BME280;68622;53.128;17.966;2023-06-22T02:16:25;101493.20;;;19.36;67.80
76137;BME280;68622;53.128;17.966;2023-06-22T02:18:56;101495.96;;;19.32;67.82
76137;BME280;68622;53.128;17.966;2023-06-22T02:21:24;101506.23;;;19.27;68.17
76137;BME280;68622;53.128;17.966;2023-06-22T02:23:51;101515.54;;;19.22;68.53
76137;BME280;68622;53.128;17.966;2023-06-22T02:26:17;101520.82;;;19.19;68.42
76137;BME280;68622;53.128;17.966;2023-06-22T02:28:44;101523.71;;;19.20;68.67
76137;BME280;68622;53.128;17.966;2023-06-22T02:31:12;101527.65;;;19.18;68.59
76137;BME280;68622;53.128;17.966;2023-06-22T02:33:38;101526.36;;;19.17;69.07
76137;BME280;68622;53.128;17.966;2023-06-22T02:36:05;101526.05;;;19.16;68.46
76137;BME280;68622;53.128;17.966;2023-06-22T02:38:35;101529.17;;;19.17;68.44
76137;BME280;68622;53.128;17.966;2023-06-22T02:41:03;101525.06;;;19.14;68.84
76137;BME280;68622;53.128;17.966;2023-06-22T02:43:29;101524.17;;;19.16;68.48
76137;BME280;68622;53.128;17.966;2023-06-22T02:45:56;101521.84;;;19.15;68.30
76137;BME280;68622;53.128;17.966;2023-06-22T02:48:22;101523.26;;;19.13;68.04
76137;BME280;68622;53.128;17.966;2023-06-22T02:50:49;101526.29;;;19.11;67.73
76137;BME280;68622;53.128;17.966;2023-06-22T02:53:16;101528.44;;;19.11;67.65
76137;BME280;68622;53.128;17.966;2023-06-22T02:55:45;101525.60;;;19.14;67.50
76137;BME280;68622;53.128;17.966;2023-06-22T02:58:11;101524.07;;;19.17;67.45
76137;BME280;68622;53.128;17.966;2023-06-22T03:00:38;101523.20;;;19.17;67.32
76137;BME280;68622;53.128;17.966;2023-06-22T03:03:06;101524.35;;;19.19;67.09
76137;BME280;68622;53.128;17.966;2023-06-22T03:05:32;101530.19;;;19.19;67.02
76137;BME280;68622;53.128;17.966;2023-06-22T03:08:01;101531.73;;;19.19;66.91
76137;BME280;68622;53.128;17.966;2023-06-22T03:10:30;101536.16;;;19.22;66.71
76137;BME280;68622;53.128;17.966;2023-06-22T03:12:57;101541.77;;;19.25;66.57
76137;BME280;68622;53.128;17.966;2023-06-22T03:15:23;101543.64;;;19.29;66.68
76137;BME280;68622;53.128;17.966;2023-06-22T03:17:51;101544.36;;;19.32;66.46
76137;BME280;68622;53.128;17.966;2023-06-22T03:20:18;101549.80;;;19.32;66.42
76137;BME280;68622;53.128;17.966;2023-06-22T03:22:45;101553.35;;;19.33;66.28
76137;BME280;68622;53.128;17.966;2023-06-22T03:25:12;101551.83;;;19.33;66.27
76137;BME280;68622;53.128;17.966;2023-06-22T03:27:42;101552.60;;;19.32;66.33
76137;BME280;68622;53.128;17.966;2023-06-22T03:30:11;101550.83;;;19.37;66.20
76137;BME280;68622;53.128;17.966;2023-06-22T03:32:38;101551.78;;;19.38;66.33
76137;BME280;68622;53.128;17.966;2023-06-22T03:35:06;101550.92;;;19.47;66.34
76137;BME280;68622;53.128;17.966;2023-06-22T03:37:35;101550.88;;;19.60;65.83
76137;BME280;68622;53.128;17.966;2023-06-22T03:40:02;101552.76;;;19.78;65.19
76137;BME280;68622;53.128;17.966;2023-06-22T03:42:33;101559.72;;;20.03;64.74
76137;BME280;68622;53.128;17.966;2023-06-22T03:45:01;101564.08;;;20.24;64.26
76137;BME280;68622;53.128;17.966;2023-06-22T03:47:28;101564.06;;;20.38;63.53
76137;BME280;68622;53.128;17.966;2023-06-22T03:49:54;101569.95;;;20.53;63.30
76137;BME280;68622;53.128;17.966;2023-06-22T03:52:21;101576.40;;;20.70;63.00
76137;BME280;68622;53.128;17.966;2023-06-22T03:54:48;101574.95;;;20.80;62.37
76137;BME280;68622;53.128;17.966;2023-06-22T03:57:15;101571.97;;;20.89;61.96
76137;BME280;68622;53.128;17.966;2023-06-22T03:59:42;101571.09;;;20.93;61.58
76137;BME280;68622;53.128;17.966;2023-06-22T04:02:08;101569.26;;;21.05;61.25
76137;BME280;68622;53.128;17.966;2023-06-22T04:04:35;101570.59;;;21.12;60.89
76137;BME280;68622;53.128;17.966;2023-06-22T04:07:02;101573.02;;;21.11;60.83
76137;BME280;68622;53.128;17.966;2023-06-22T04:09:29;101580.11;;;21.25;60.66
76137;BME280;68622;53.128;17.966;2023-06-22T04:11:55;101576.19;;;21.37;60.34
76137;BME280;68622;53.128;17.966;2023-06-22T04:14:22;101573.85;;;21.41;60.12
76137;BME280;68622;53.128;17.966;2023-06-22T04:16:48;101574.33;;;21.47;60.01
76137;BME280;68622;53.128;17.966;2023-06-22T04:19:15;101574.64;;;21.58;59.66
76137;BME280;68622;53.128;17.966;2023-06-22T04:21:44;101576.21;;;21.67;59.59
76137;BME280;68622;53.128;17.966;2023-06-22T04:24:11;101579.21;;;21.75;59.46
76137;BME280;68622;53.128;17.966;2023-06-22T04:26:38;101581.30;;;21.87;58.80
76137;BME280;68622;53.128;17.966;2023-06-22T04:29:08;101574.77;;;21.94;58.26
76137;BME280;68622;53.128;17.966;2023-06-22T04:31:37;101571.09;;;22.06;58.71
76137;BME280;68622;53.128;17.966;2023-06-22T04:34:05;101565.11;;;22.13;57.67
76137;BME280;68622;53.128;17.966;2023-06-22T04:36:40;101565.83;;;22.25;57.82
76137;BME280;68622;53.128;17.966;2023-06-22T04:39:09;101565.38;;;22.26;57.24
76137;BME280;68622;53.128;17.966;2023-06-22T04:41:40;101566.13;;;22.27;57.13
76137;BME280;68622;53.128;17.966;2023-06-22T04:44:11;101568.50;;;22.36;57.01
76137;BME280;68622;53.128;17.966;2023-06-22T04:46:39;101574.23;;;22.48;56.60
76137;BME280;68622;53.128;17.966;2023-06-22T04:49:07;101581.05;;;22.58;56.38
76137;BME280;68622;53.128;17.966;2023-06-22T04:51:40;101578.68;;;22.70;56.17
76137;BME280;68622;53.128;17.966;2023-06-22T04:54:08;101580.79;;;22.87;55.58
76137;BME280;68622;53.128;17.966;2023-06-22T04:56:36;101579.20;;;22.94;55.74
76137;BME280;68622;53.128;17.966;2023-06-22T04:59:03;101581.62;;;22.97;55.36
76137;BME280;68622;53.128;17.966;2023-06-22T05:01:30;101584.23;;;22.99;55.43
76137;BME280;68622;53.128;17.966;2023-06-22T05:03:59;101586.27;;;22.95;54.73
76137;BME280;68622;53.128;17.966;2023-06-22T05:06:27;101586.05;;;22.93;55.06
76137;BME280;68622;53.128;17.966;2023-06-22T05:08:55;101582.08;;;22.85;55.08
76137;BME280;68622;53.128;17.966;2023-06-22T05:11:26;101591.02;;;22.86;55.25
76137;BME280;68622;53.128;17.966;2023-06-22T05:13:54;101599.10;;;22.85;55.47
76137;BME280;68622;53.128;17.966;2023-06-22T05:16:22;101597.37;;;22.88;55.30
76137;BME280;68622;53.128;17.966;2023-06-22T05:18:54;101592.33;;;22.81;55.28
76137;BME280;68622;53.128;17.966;2023-06-22T05:21:26;101591.36;;;22.94;55.44
76137;BME280;68622;53.128;17.966;2023-06-22T05:23:53;101599.63;;;23.11;55.14
76137;BME280;68622;53.128;17.966;2023-06-22T05:26:21;101601.77;;;23.36;54.97
76137;BME280;68622;53.128;17.966;2023-06-22T05:28:48;101604.88;;;23.45;54.22
76137;BME280;68622;53.128;17.966;2023-06-22T05:31:15;101607.10;;;23.50;54.05
76137;BME280;68622;53.128;17.966;2023-06-22T05:33:42;101608.23;;;23.63;53.58
76137;BME280;68622;53.128;17.966;2023-06-22T05:36:10;101610.86;;;23.55;53.32
76137;BME280;68622;53.128;17.966;2023-06-22T05:38:36;101611.39;;;23.54;53.71
76137;BME280;68622;53.128;17.966;2023-06-22T05:41:03;101611.17;;;23.73;53.56
76137;BME280;68622;53.128;17.966;2023-06-22T05:43:30;101613.41;;;23.69;52.86
76137;BME280;68622;53.128;17.966;2023-06-22T05:45:57;101607.89;;;23.80;52.55
76137;BME280;68622;53.128;17.966;2023-06-22T05:48:24;101605.27;;;23.84;52.61
76137;BME280;68622;53.128;17.966;2023-06-22T05:50:51;101603.30;;;23.93;52.53
76137;BME280;68622;53.128;17.966;2023-06-22T05:53:18;101596.89;;;24.16;52.79
76137;BME280;68622;53.128;17.966;2023-06-22T05:55:44;101600.20;;;24.29;51.88
76137;BME280;68622;53.128;17.966;2023-06-22T05:58:11;101599.67;;;24.37;51.27
76137;BME280;68622;53.128;17.966;2023-06-22T06:00:40;101600.54;;;24.42;51.20
76137;BME280;68622;53.128;17.966;2023-06-22T06:03:07;101596.44;;;24.41;50.83
76137;BME280;68622;53.128;17.966;2023-06-22T06:05:35;101600.20;;;24.41;50.50
76137;BME280;68622;53.128;17.966;2023-06-22T06:08:03;101598.77;;;24.58;50.88
76137;BME280;68622;53.128;17.966;2023-06-22T06:10:32;101595.16;;;24.58;50.61
76137;BME280;68622;53.128;17.966;2023-06-22T06:12:59;101601.67;;;24.60;50.33
76137;BME280;68622;53.128;17.966;2023-06-22T06:15:28;101592.67;;;24.59;49.95
76137;BME280;68622;53.128;17.966;2023-06-22T06:17:56;101589.62;;;24.67;49.76
76137;BME280;68622;53.128;17.966;2023-06-22T06:20:25;101586.59;;;24.80;49.40
76137;BME280;68622;53.128;17.966;2023-06-22T06:22:54;101592.18;;;24.89;49.09
76137;BME280;68622;53.128;17.966;2023-06-22T06:25:20;101600.27;;;24.81;47.91
76137;BME280;68622;53.128;17.966;2023-06-22T06:27:52;101603.82;;;24.78;48.40
76137;BME280;68622;53.128;17.966;2023-06-22T06:30:21;101607.84;;;24.81;48.83
76137;BME280;68622;53.128;17.966;2023-06-22T06:32:49;101609.02;;;24.87;48.86
76137;BME280;68622;53.128;17.966;2023-06-22T06:35:16;101606.47;;;25.06;48.71
76137;BME280;68622;53.128;17.966;2023-06-22T06:37:45;101604.66;;;25.04;47.12
76137;BME280;68622;53.128;17.966;2023-06-22T06:40:13;101602.77;;;24.98;47.01
76137;BME280;68622;53.128;17.966;2023-06-22T06:42:43;101604.42;;;25.06;47.56
76137;BME280;68622;53.128;17.966;2023-06-22T06:45:12;101603.54;;;25.28;48.08
76137;BME280;68622;53.128;17.966;2023-06-22T06:47:39;101597.45;;;25.43;46.98
76137;BME280;68622;53.128;17.966;2023-06-22T06:50:06;101597.22;;;25.32;45.84
76137;BME280;68622;53.128;17.966;2023-06-22T06:52:34;101596.11;;;25.32;46.35
76137;BME280;68622;53.128;17.966;2023-06-22T06:55:00;101596.65;;;25.37;46.08
76137;BME280;68622;53.128;17.966;2023-06-22T06:57:27;101590.81;;;25.32;45.98
76137;BME280;68622;53.128;17.966;2023-06-22T06:59:56;101591.21;;;25.36;45.90
76137;BME280;68622;53.128;17.966;2023-06-22T07:02:23;101601.13;;;25.47;46.20
76137;BME280;68622;53.128;17.966;2023-06-22T07:04:50;101597.48;;;25.49;45.89
76137;BME280;68622;53.128;17.966;2023-06-22T07:07:17;101599.63;;;25.43;45.55
76137;BME280;68622;53.128;17.966;2023-06-22T07:09:43;101597.65;;;25.44;45.10
76137;BME280;68622;53.128;17.966;2023-06-22T07:12:10;101600.02;;;25.35;44.83
76137;BME280;68622;53.128;17.966;2023-06-22T07:14:37;101595.96;;;25.34;45.61
76137;BME280;68622;53.128;17.966;2023-06-22T07:17:04;101598.06;;;25.43;45.25
76137;BME280;68622;53.128;17.966;2023-06-22T07:19:32;101601.77;;;25.52;45.72
76137;BME280;68622;53.128;17.966;2023-06-22T07:21:59;101601.30;;;25.61;45.23
76137;BME280;68622;53.128;17.966;2023-06-22T07:24:26;101606.84;;;25.55;45.54
76137;BME280;68622;53.128;17.966;2023-06-22T07:26:53;101607.73;;;25.57;45.34
76137;BME280;68622;53.128;17.966;2023-06-22T07:29:20;101608.61;;;25.57;44.44
76137;BME280;68622;53.128;17.966;2023-06-22T07:31:49;101615.30;;;25.51;44.29
76137;BME280;68622;53.128;17.966;2023-06-22T07:34:17;101619.79;;;25.56;44.97
76137;BME280;68622;53.128;17.966;2023-06-22T07:36:44;101616.43;;;25.45;45.04
76137;BME280;68622;53.128;17.966;2023-06-22T07:39:12;101618.06;;;25.48;45.06
76137;BME280;68622;53.128;17.966;2023-06-22T07:41:39;101622.93;;;25.37;44.36
76137;BME280;68622;53.128;17.966;2023-06-22T07:44:09;101618.65;;;25.43;45.15
76137;BME280;68622;53.128;17.966;2023-06-22T07:46:35;101618.64;;;25.45;45.03
76137;BME280;68622;53.128;17.966;2023-06-22T07:49:02;101621.63;;;25.48;44.83
76137;BME280;68622;53.128;17.966;2023-06-22T07:51:29;101619.35;;;25.52;44.37
76137;BME280;68622;53.128;17.966;2023-06-22T07:53:55;101616.57;;;25.51;44.94
76137;BME280;68622;53.128;17.966;2023-06-22T07:56:22;101615.31;;;25.60;44.38
76137;BME280;68622;53.128;17.966;2023-06-22T07:58:48;101612.89;;;25.64;44.37
76137;BME280;68622;53.128;17.966;2023-06-22T08:01:15;101616.74;;;25.64;44.64
76137;BME280;68622;53.128;17.966;2023-06-22T08:03:43;101617.94;;;25.69;44.95
76137;BME280;68622;53.128;17.966;2023-06-22T08:06:09;101620.42;;;25.67;44.19
76137;BME280;68622;53.128;17.966;2023-06-22T08:08:36;101621.66;;;25.68;44.48
76137;BME280;68622;53.128;17.966;2023-06-22T08:11:03;101621.92;;;25.70;44.08
76137;BME280;68622;53.128;17.966;2023-06-22T08:13:30;101624.65;;;25.74;43.85
76137;BME280;68622;53.128;17.966;2023-06-22T08:15:57;101628.75;;;25.77;43.56
76137;BME280;68622;53.128;17.966;2023-06-22T08:18:23;101635.52;;;25.65;43.45
76137;BME280;68622;53.128;17.966;2023-06-22T08:20:50;101637.24;;;25.65;43.77
76137;BME280;68622;53.128;17.966;2023-06-22T08:23:17;101639.75;;;25.65;44.14
76137;BME280;68622;53.128;17.966;2023-06-22T08:25:44;101632.20;;;25.59;44.07
76137;BME280;68622;53.128;17.966;2023-06-22T08:28:10;101625.09;;;25.69;43.82
76137;BME280;68622;53.128;17.966;2023-06-22T08:30:37;101624.89;;;25.77;43.31
76137;BME280;68622;53.128;17.966;2023-06-22T08:33:04;101625.70;;;25.78;43.07
76137;BME280;68622;53.128;17.966;2023-06-22T08:35:30;101625.98;;;25.80;43.00
76137;BME280;68622;53.128;17.966;2023-06-22T08:37:57;101627.54;;;25.79;43.51
76137;BME280;68622;53.128;17.966;2023-06-22T08:40:24;101626.18;;;25.81;43.12
76137;BME280;68622;53.128;17.966;2023-06-22T08:42:51;101626.18;;;25.88;43.48
76137;BME280;68622;53.128;17.966;2023-06-22T08:45:18;101617.95;;;26.00;43.82
76137;BME280;68622;53.128;17.966;2023-06-22T08:47:45;101616.59;;;26.13;44.43
76137;BME280;68622;53.128;17.966;2023-06-22T08:50:12;101615.40;;;26.33;44.16
76137;BME280;68622;53.128;17.966;2023-06-22T08:52:40;101618.13;;;26.41;42.73
76137;BME280;68622;53.128;17.966;2023-06-22T08:55:10;101613.68;;;26.44;42.44
76137;BME280;68622;53.128;17.966;2023-06-22T08:57:37;101609.91;;;26.38;42.41
76137;BME280;68622;53.128;17.966;2023-06-22T09:00:07;101606.81;;;26.31;42.27
76137;BME280;68622;53.128;17.966;2023-06-22T09:02:44;101610.00;;;26.32;41.89
76137;BME280;68622;53.128;17.966;2023-06-22T09:05:11;101612.64;;;26.31;41.89
76137;BME280;68622;53.128;17.966;2023-06-22T09:07:37;101609.65;;;26.20;41.13
76137;BME280;68622;53.128;17.966;2023-06-22T09:10:05;101615.52;;;26.21;40.88
76137;BME280;68622;53.128;17.966;2023-06-22T09:12:32;101606.45;;;26.30;41.02
76137;BME280;68622;53.128;17.966;2023-06-22T09:15:00;101606.58;;;26.29;40.72
76137;BME280;68622;53.128;17.966;2023-06-22T09:17:27;101602.74;;;26.34;41.06
76137;BME280;68622;53.128;17.966;2023-06-22T09:19:54;101596.71;;;26.39;40.86
76137;BME280;68622;53.128;17.966;2023-06-22T09:22:20;101594.65;;;26.36;39.98
76137;BME280;68622;53.128;17.966;2023-06-22T09:24:47;101589.82;;;26.45;39.76
76137;BME280;68622;53.128;17.966;2023-06-22T09:27:13;101585.44;;;26.44;39.43
76137;BME280;68622;53.128;17.966;2023-06-22T09:29:40;101587.06;;;26.50;39.99
76137;BME280;68622;53.128;17.966;2023-06-22T09:32:07;101585.72;;;26.59;39.91
76137;BME280;68622;53.128;17.966;2023-06-22T09:34:33;101580.21;;;26.66;39.92
76137;BME280;68622;53.128;17.966;2023-06-22T09:37:00;101581.73;;;26.68;39.17
76137;BME280;68622;53.128;17.966;2023-06-22T09:39:30;101582.75;;;26.72;38.91
76137;BME280;68622;53.128;17.966;2023-06-22T09:42:00;101581.32;;;26.79;39.11
76137;BME280;68622;53.128;17.966;2023-06-22T09:44:27;101583.48;;;26.82;39.29
76137;BME280;68622;53.128;17.966;2023-06-22T09:46:54;101571.73;;;26.82;38.82
76137;BME280;68622;53.128;17.966;2023-06-22T09:49:21;101578.21;;;26.91;36.96
76137;BME280;68622;53.128;17.966;2023-06-22T09:51:48;101576.63;;;27.09;38.04
76137;BME280;68622;53.128;17.966;2023-06-22T09:54:17;101576.89;;;27.18;38.17
76137;BME280;68622;53.128;17.966;2023-06-22T09:56:44;101581.45;;;27.22;38.30
76137;BME280;68622;53.128;17.966;2023-06-22T09:59:10;101581.20;;;27.26;38.08
76137;BME280;68622;53.128;17.966;2023-06-22T10:01:37;101574.73;;;27.31;37.90
76137;BME280;68622;53.128;17.966;2023-06-22T10:04:03;101578.70;;;27.33;37.74
76137;BME280;68622;53.128;17.966;2023-06-22T10:06:30;101577.04;;;27.30;37.85
76137;BME280;68622;53.128;17.966;2023-06-22T10:08:57;101578.70;;;27.26;37.89
76137;BME280;68622;53.128;17.966;2023-06-22T10:11:23;101572.08;;;27.30;38.00
76137;BME280;68622;53.128;17.966;2023-06-22T10:13:55;101570.92;;;27.32;38.16
76137;BME280;68622;53.128;17.966;2023-06-22T10:16:25;101569.90;;;27.40;38.16
76137;BME280;68622;53.128;17.966;2023-06-22T10:18:56;101572.41;;;27.52;37.93
76137;BME280;68622;53.128;17.966;2023-06-22T10:21:23;101565.56;;;27.54;36.87
76137;BME280;68622;53.128;17.966;2023-06-22T10:23:49;101570.11;;;27.51;36.43
76137;BME280;68622;53.128;17.966;2023-06-22T10:26:17;101562.98;;;27.52;36.69
76137;BME280;68622;53.128;17.966;2023-06-22T10:28:44;101561.00;;;27.50;36.82
76137;BME280;68622;53.128;17.966;2023-06-22T10:31:11;101562.04;;;27.53;37.18
76137;BME280;68622;53.128;17.966;2023-06-22T10:33:38;101562.06;;;27.46;36.83
76137;BME280;68622;53.128;17.966;2023-06-22T10:36:08;101561.06;;;27.48;36.98
76137;BME280;68622;53.128;17.966;2023-06-22T10:38:34;101565.74;;;27.57;35.98
76137;BME280;68622;53.128;17.966;2023-06-22T10:41:01;101563.95;;;27.52;36.08
76137;BME280;68622;53.128;17.966;2023-06-22T10:43:27;101566.77;;;27.53;36.39
76137;BME280;68622;53.128;17.966;2023-06-22T10:45:54;101561.33;;;27.54;36.30
76137;BME280;68622;53.128;17.966;2023-06-22T10:48:21;101561.89;;;27.55;35.80
76137;BME280;68622;53.128;17.966;2023-06-22T10:50:47;101556.55;;;27.63;36.19
76137;BME280;68622;53.128;17.966;2023-06-22T10:53:15;101550.77;;;27.61;35.45
76137;BME280;68622;53.128;17.966;2023-06-22T10:55:42;101550.54;;;27.64;34.59
76137;BME280;68622;53.128;17.966;2023-06-22T10:58:08;101544.51;;;27.57;35.47
76137;BME280;68622;53.128;17.966;2023-06-22T11:00:35;101547.77;;;27.72;34.94
76137;BME280;68622;53.128;17.966;2023-06-22T11:03:01;101547.44;;;27.82;35.65
76137;BME280;68622;53.128;17.966;2023-06-22T11:05:28;101542.06;;;27.95;36.16
76137;BME280;68622;53.128;17.966;2023-06-22T11:07:55;101544.30;;;27.99;35.51
76137;BME280;68622;53.128;17.966;2023-06-22T11:10:21;101544.38;;;28.04;35.88
76137;BME280;68622;53.128;17.966;2023-06-22T11:12:48;101546.77;;;28.07;35.53
76137;BME280;68622;53.128;17.966;2023-06-22T11:15:14;101549.46;;;28.03;35.35
76137;BME280;68622;53.128;17.966;2023-06-22T11:17:41;101550.89;;;27.99;34.80
76137;BME280;68622;53.128;17.966;2023-06-22T11:20:08;101548.30;;;28.01;34.64
76137;BME280;68622;53.128;17.966;2023-06-22T11:22:39;101547.66;;;28.02;35.59
76137;BME280;68622;53.128;17.966;2023-06-22T11:25:06;101545.71;;;28.12;36.06
76137;BME280;68622;53.128;17.966;2023-06-22T11:27:33;101542.67;;;28.14;35.41
76137;BME280;68622;53.128;17.966;2023-06-22T11:30:01;101541.19;;;28.25;35.46
76137;BME280;68622;53.128;17.966;2023-06-22T11:32:28;101546.31;;;28.32;34.70
76137;BME280;68622;53.128;17.966;2023-06-22T11:34:54;101546.92;;;28.37;34.87
76137;BME280;68622;53.128;17.966;2023-06-22T11:37:21;101547.54;;;28.46;34.74
76137;BME280;68622;53.128;17.966;2023-06-22T11:39:47;101548.56;;;28.38;32.98
76137;BME280;68622;53.128;17.966;2023-06-22T11:42:14;101549.23;;;28.49;34.24
76137;BME280;68622;53.128;17.966;2023-06-22T11:44:42;101549.50;;;28.49;33.19
76137;BME280;68622;53.128;17.966;2023-06-22T11:47:10;101543.93;;;28.49;33.23
76137;BME280;68622;53.128;17.966;2023-06-22T11:49:38;101537.69;;;28.55;33.58
76137;BME280;68622;53.128;17.966;2023-06-22T11:52:05;101537.04;;;28.62;33.99
76137;BME280;68622;53.128;17.966;2023-06-22T11:54:32;101540.48;;;28.72;34.38
76137;BME280;68622;53.128;17.966;2023-06-22T11:56:58;101534.70;;;28.65;33.84
76137;BME280;68622;53.128;17.966;2023-06-22T11:59:25;101532.73;;;28.68;32.91
76137;BME280;68622;53.128;17.966;2023-06-22T12:01:52;101528.04;;;28.66;33.67
76137;BME280;68622;53.128;17.966;2023-06-22T12:04:20;101531.58;;;28.74;33.22
76137;BME280;68622;53.128;17.966;2023-06-22T12:06:47;101523.19;;;28.75;32.86
76137;BME280;68622;53.128;17.966;2023-06-22T12:09:13;101519.08;;;28.73;33.00
76137;BME280;68622;53.128;17.966;2023-06-22T12:11:40;101520.00;;;28.67;32.85
76137;BME280;68622;53.128;17.966;2023-06-22T12:14:07;101514.27;;;28.69;32.99
76137;BME280;68622;53.128;17.966;2023-06-22T12:16:33;101508.30;;;28.70;33.29
76137;BME280;68622;53.128;17.966;2023-06-22T12:19:03;101507.30;;;28.74;33.39
76137;BME280;68622;53.128;17.966;2023-06-22T12:21:29;101507.77;;;28.76;33.89
76137;BME280;68622;53.128;17.966;2023-06-22T12:23:56;101508.61;;;28.80;33.55
76137;BME280;68622;53.128;17.966;2023-06-22T12:26:23;101506.73;;;28.88;33.83
76137;BME280;68622;53.128;17.966;2023-06-22T12:28:50;101501.12;;;28.82;32.85
76137;BME280;68622;53.128;17.966;2023-06-22T12:31:17;101500.56;;;28.79;33.15
76137;BME280;68622;53.128;17.966;2023-06-22T12:33:44;101499.27;;;28.74;32.94
76137;BME280;68622;53.128;17.966;2023-06-22T12:36:10;101500.06;;;28.80;33.37
76137;BME280;68622;53.128;17.966;2023-06-22T12:38:37;101501.59;;;28.79;32.84
76137;BME280;68622;53.128;17.966;2023-06-22T12:41:04;101496.10;;;28.74;32.66
76137;BME280;68622;53.128;17.966;2023-06-22T12:43:31;101490.21;;;28.77;32.43
76137;BME280;68622;53.128;17.966;2023-06-22T12:45:58;101486.85;;;28.64;31.98